Time;durP1;ratioP1;P1;durP2;ratioP2;P2;SDS_P1;SDS_P2;PMS_P1;PMS_P2;Temp;Humidity;BMP_temperature;BMP_pressure;BME280_temperature;BME280_humidity;BME280_pressure;Samples;Min_cycle;Max_cycle;Signal;HPM_P1;HPM_P2
2023/04/15 00:02:19;;;;;;;14.93;8.55;;;10.10;99.90;;;;;;4917225;29;20036;-91
2023/04/15 00:04:47;;;;;;;18.65;9.18;;;10.10;99.90;;;;;;4917047;29;20039;-91
2023/04/15 00:07:13;;;;;;;18.98;9.35;;;10.10;99.90;;;;;;4917146;29;20024;-90
2023/04/15 00:09:43;;;;;;;19.17;8.88;;;10.10;99.90;;;;;;4916607;29;20052;-91
2023/04/15 00:12:11;;;;;;;15.55;8.77;;;10.20;99.90;;;;;;4916957;29;20035;-92
2023/04/15 00:14:38;;;;;;;19.63;7.78;;;10.30;99.90;;;;;;4917080;29;20032;-89
2023/04/15 00:17:07;;;;;;;20.33;7.50;;;10.30;99.90;;;;;;4879829;29;20176;-88
2023/04/15 00:19:34;;;;;;;19.10;7.28;;;10.40;99.90;;;;;;4863107;29;20033;-91
2023/04/15 00:22:00;;;;;;;16.13;7.20;;;10.40;99.90;;;;;;4863307;29;20037;-89
2023/04/15 00:24:27;;;;;;;17.00;7.40;;;10.40;99.90;;;;;;4863316;29;20033;-89
2023/04/15 00:26:53;;;;;;;21.77;7.45;;;10.40;99.90;;;;;;4866812;29;20048;-88
2023/04/15 00:29:20;;;;;;;14.05;7.63;;;10.40;99.90;;;;;;4885679;29;20544;-90
2023/04/15 00:31:47;;;;;;;12.73;7.50;;;10.30;99.90;;;;;;4901242;29;20490;-91
2023/04/15 00:34:13;;;;;;;16.75;6.70;;;10.30;99.90;;;;;;4885577;29;20028;-91
2023/04/15 00:36:43;;;;;;;18.00;6.60;;;10.40;99.90;;;;;;4901094;29;20048;-92
2023/04/15 00:39:10;;;;;;;16.33;5.82;;;10.40;99.90;;;;;;4885570;29;20063;-89
2023/04/15 00:41:40;;;;;;;16.83;6.15;;;10.40;99.90;;;;;;4901061;29;20032;-89
2023/04/15 00:44:09;;;;;;;17.65;6.43;;;10.40;99.90;;;;;;4901143;29;20511;-91
2023/04/15 00:46:37;;;;;;;22.15;5.88;;;10.40;99.90;;;;;;4885364;29;20093;-89
2023/04/15 00:49:05;;;;;;;18.02;5.70;;;10.40;99.90;;;;;;4900350;29;20124;-90
2023/04/15 00:51:36;;;;;;;17.02;6.00;;;10.50;99.90;;;;;;4919487;29;20058;-90
2023/04/15 00:54:03;;;;;;;17.77;6.28;;;10.50;99.90;;;;;;4920945;29;20032;-89
2023/04/15 00:56:30;;;;;;;17.42;5.85;;;10.50;99.90;;;;;;4922797;29;20040;-90
2023/04/15 00:58:58;;;;;;;13.98;5.45;;;10.40;99.90;;;;;;4924326;29;20494;-89
2023/04/15 01:01:26;;;;;;;14.80;5.18;;;10.50;99.90;;;;;;4920253;29;20036;-89
2023/04/15 01:03:52;;;;;;;16.70;5.30;;;10.40;99.90;;;;;;4920040;29;20035;-89
2023/04/15 01:06:20;;;;;;;17.63;5.70;;;10.40;99.90;;;;;;4904213;29;20028;-90
2023/04/15 01:08:46;;;;;;;21.13;5.10;;;10.30;99.90;;;;;;4881535;29;20045;-89
2023/04/15 01:11:14;;;;;;;13.75;5.57;;;10.30;99.90;;;;;;4866110;29;20049;-90
2023/04/15 01:13:41;;;;;;;11.10;5.10;;;10.30;99.90;;;;;;4900602;29;20150;-89
2023/04/15 01:16:08;;;;;;;17.25;5.80;;;10.10;99.90;;;;;;4900846;29;20041;-89
2023/04/15 01:18:37;;;;;;;15.57;5.40;;;10.10;99.90;;;;;;4897669;29;20533;-90
2023/04/15 01:21:06;;;;;;;12.52;4.88;;;10.00;99.90;;;;;;4882890;29;20435;-89
2023/04/15 01:23:37;;;;;;;13.52;5.53;;;9.90;99.90;;;;;;4881722;29;20101;-90
2023/04/15 01:26:08;;;;;;;18.35;5.60;;;9.90;99.90;;;;;;4866313;29;20533;-91
2023/04/15 01:28:36;;;;;;;15.55;5.40;;;10.00;99.90;;;;;;4881450;29;20035;-89
2023/04/15 01:31:12;;;;;;;21.73;7.00;;;10.00;99.90;;;;;;4881599;29;20089;-89
2023/04/15 01:33:41;;;;;;;18.52;6.47;;;10.00;99.90;;;;;;4881531;29;20128;-92
2023/04/15 01:36:09;;;;;;;15.68;6.00;;;10.10;99.90;;;;;;4865836;29;20033;-88
2023/04/15 01:38:37;;;;;;;19.88;6.15;;;10.10;99.90;;;;;;4881998;29;20041;-91
2023/04/15 01:41:06;;;;;;;16.60;5.40;;;10.10;99.90;;;;;;4897988;29;20157;-90
2023/04/15 01:43:33;;;;;;;17.88;4.93;;;10.20;99.90;;;;;;4884634;29;20029;-92
2023/04/15 01:46:00;;;;;;;17.83;4.68;;;10.30;99.90;;;;;;4886214;29;20035;-89
2023/04/15 01:48:27;;;;;;;37.60;5.93;;;10.30;99.90;;;;;;4900202;29;20059;-90
2023/04/15 01:50:56;;;;;;;15.60;4.65;;;10.40;99.90;;;;;;4907609;29;20020;-93
2023/04/15 01:53:23;;;;;;;23.50;6.35;;;10.50;99.90;;;;;;4922353;29;20477;-89
2023/04/15 01:55:50;;;;;;;14.65;4.82;;;10.50;99.90;;;;;;4932047;29;20115;-89
2023/04/15 01:58:18;;;;;;;25.63;4.97;;;10.50;99.90;;;;;;4892842;29;20082;-90
2023/04/15 02:00:44;;;;;;;19.10;5.13;;;10.40;99.90;;;;;;4906767;29;20032;-90
2023/04/15 02:03:11;;;;;;;12.60;5.10;;;10.40;99.90;;;;;;4919131;29;20100;-89
2023/04/15 02:05:37;;;;;;;21.85;5.10;;;10.30;99.90;;;;;;4920052;29;20105;-91
2023/04/15 02:08:04;;;;;;;15.02;5.70;;;10.30;99.90;;;;;;4918774;29;20028;-92
2023/04/15 02:10:31;;;;;;;13.80;4.95;;;10.20;99.90;;;;;;4937824;29;20099;-90
2023/04/15 02:12:58;;;;;;;11.23;4.40;;;10.20;99.90;;;;;;4937872;29;20039;-91
2023/04/15 02:15:27;;;;;;;14.95;4.80;;;10.10;99.90;;;;;;4937841;29;20031;-90
2023/04/15 02:17:54;;;;;;;12.02;4.72;;;10.10;99.90;;;;;;4937573;29;20035;-89
2023/04/15 02:20:21;;;;;;;11.88;4.43;;;10.10;99.90;;;;;;4937698;29;20027;-90
2023/04/15 02:22:48;;;;;;;16.95;5.25;;;10.00;99.90;;;;;;4937794;29;20561;-88
2023/04/15 02:25:17;;;;;;;19.60;4.50;;;10.00;99.90;;;;;;4937717;29;20038;-90
2023/04/15 02:27:44;;;;;;;9.07;4.68;;;10.00;99.90;;;;;;4937594;29;20119;-90
2023/04/15 02:30:11;;;;;;;19.73;5.47;;;9.90;99.90;;;;;;4937556;29;20035;-90
2023/04/15 02:32:38;;;;;;;14.45;5.07;;;9.90;99.90;;;;;;4937500;29;20592;-91
2023/04/15 02:35:06;;;;;;;18.40;5.55;;;9.90;99.90;;;;;;4937573;29;20059;-92
2023/04/15 02:37:39;;;;;;;17.02;5.03;;;9.90;99.90;;;;;;4937372;29;20057;-90
2023/04/15 02:40:12;;;;;;;16.13;4.85;;;9.80;99.90;;;;;;4937453;29;20032;-91
2023/04/15 02:42:39;;;;;;;15.65;5.68;;;9.80;99.90;;;;;;4937554;29;20047;-89
2023/04/15 02:45:13;;;;;;;12.20;4.97;;;9.70;99.90;;;;;;4937362;29;20032;-89
2023/04/15 02:47:42;;;;;;;14.48;4.80;;;9.70;99.90;;;;;;4937154;29;20055;-91
2023/04/15 02:50:12;;;;;;;22.15;4.85;;;9.60;99.90;;;;;;4936159;29;20024;-90
2023/04/15 02:52:41;;;;;;;7.18;4.05;;;9.60;99.90;;;;;;4937144;29;20031;-91
2023/04/15 02:55:10;;;;;;;17.38;4.70;;;9.60;99.90;;;;;;4936913;29;20044;-90
2023/04/15 02:57:38;;;;;;;13.05;4.50;;;9.70;99.90;;;;;;4934864;29;20051;-89
2023/04/15 03:00:10;;;;;;;20.35;5.40;;;9.70;99.90;;;;;;4921147;29;20103;-91
2023/04/15 03:02:40;;;;;;;20.50;5.72;;;9.80;99.90;;;;;;4921461;29;20032;-90
2023/04/15 03:05:12;;;;;;;13.75;6.18;;;9.90;99.90;;;;;;4921265;29;20378;-88
2023/04/15 03:07:43;;;;;;;17.95;5.20;;;9.90;99.90;;;;;;4921128;29;20032;-88
2023/04/15 03:10:10;;;;;;;16.17;5.20;;;10.00;99.90;;;;;;4921150;29;20548;-90
2023/04/15 03:12:37;;;;;;;22.98;5.40;;;10.20;99.90;;;;;;4907959;29;20421;-89
2023/04/15 03:15:04;;;;;;;10.35;5.20;;;10.30;99.90;;;;;;4910664;29;20031;-89
2023/04/15 03:17:37;;;;;;;18.98;6.38;;;10.40;99.90;;;;;;4926929;29;20199;-90
2023/04/15 03:20:05;;;;;;;12.15;5.80;;;10.40;99.90;;;;;;4906345;29;20032;-89
2023/04/15 03:22:32;;;;;;;11.63;5.43;;;10.30;99.90;;;;;;4906675;29;20023;-89
2023/04/15 03:24:59;;;;;;;12.70;5.82;;;10.10;99.90;;;;;;4920963;29;20035;-88
2023/04/15 03:27:25;;;;;;;15.70;5.97;;;9.90;99.90;;;;;;4904981;29;20122;-89
2023/04/15 03:29:55;;;;;;;11.70;5.75;;;9.70;99.90;;;;;;4921148;29;20079;-89
2023/04/15 03:32:26;;;;;;;12.48;5.97;;;9.70;99.90;;;;;;4921075;29;20027;-90
2023/04/15 03:34:53;;;;;;;10.27;5.47;;;9.60;99.90;;;;;;4920527;29;20036;-90
2023/04/15 03:37:19;;;;;;;18.80;5.50;;;9.50;99.90;;;;;;4904807;29;20042;-90
2023/04/15 03:39:46;;;;;;;14.85;5.20;;;9.50;99.90;;;;;;4920645;29;20047;-89
2023/04/15 03:42:12;;;;;;;11.70;5.40;;;9.50;99.90;;;;;;4904796;29;20035;-88
2023/04/15 03:44:39;;;;;;;15.98;5.20;;;9.40;99.90;;;;;;4920717;29;20038;-89
2023/04/15 03:47:05;;;;;;;14.13;4.80;;;9.40;99.90;;;;;;4904729;29;20099;-90
2023/04/15 03:49:31;;;;;;;11.10;4.70;;;9.40;99.90;;;;;;4904706;29;20078;-91
2023/04/15 03:51:58;;;;;;;10.93;4.78;;;9.40;99.90;;;;;;4904681;29;20067;-89
2023/04/15 03:54:25;;;;;;;19.40;5.85;;;9.50;99.90;;;;;;4904629;29;20040;-90
2023/04/15 03:56:51;;;;;;;11.63;4.72;;;9.50;99.90;;;;;;4904531;29;20040;-90
2023/04/15 03:59:17;;;;;;;8.95;4.80;;;9.50;99.90;;;;;;4904361;29;20027;-91
2023/04/15 04:01:44;;;;;;;11.43;4.60;;;9.50;99.90;;;;;;4904383;29;20040;-91
2023/04/15 04:04:11;;;;;;;11.27;4.82;;;9.40;99.90;;;;;;4920320;29;20038;-89
2023/04/15 04:06:37;;;;;;;12.38;4.82;;;9.30;99.90;;;;;;4904845;29;20032;-90
2023/04/15 04:09:04;;;;;;;8.50;4.80;;;9.20;99.90;;;;;;4916824;29;20494;-90
2023/04/15 04:11:30;;;;;;;15.93;5.63;;;9.10;99.90;;;;;;4917398;29;20059;-90
2023/04/15 04:13:57;;;;;;;13.40;4.80;;;9.00;99.90;;;;;;4921677;29;20028;-90
2023/04/15 04:16:23;;;;;;;20.55;5.00;;;8.90;99.90;;;;;;4916918;29;20036;-90
2023/04/15 04:18:50;;;;;;;16.70;4.53;;;8.80;99.90;;;;;;4916732;29;20390;-90
2023/04/15 04:21:16;;;;;;;10.70;4.50;;;8.80;99.90;;;;;;4916975;29;20043;-88
2023/04/15 04:23:43;;;;;;;14.43;5.18;;;8.80;99.90;;;;;;4917053;29;20028;-89
2023/04/15 04:26:09;;;;;;;14.43;5.15;;;8.70;99.90;;;;;;4916787;29;20485;-90
2023/04/15 04:28:38;;;;;;;7.18;5.20;;;8.80;99.90;;;;;;4916980;29;20068;-90
2023/04/15 04:31:07;;;;;;;10.95;5.97;;;8.80;99.90;;;;;;4898236;29;20028;-91
2023/04/15 04:33:34;;;;;;;15.57;6.03;;;8.90;99.90;;;;;;4866980;29;20029;-90
2023/04/15 04:36:00;;;;;;;16.13;5.57;;;8.90;99.90;;;;;;4882340;29;20037;-89
2023/04/15 04:38:27;;;;;;;14.80;5.32;;;9.00;99.90;;;;;;4882264;29;20065;-89
2023/04/15 04:40:53;;;;;;;15.77;5.88;;;9.00;99.90;;;;;;4882248;29;20075;-89
2023/04/15 04:43:19;;;;;;;15.73;6.78;;;9.10;99.90;;;;;;4882120;29;20039;-89
2023/04/15 04:45:46;;;;;;;12.40;6.40;;;9.20;99.90;;;;;;4886512;29;20067;-90
2023/04/15 04:48:12;;;;;;;19.27;6.45;;;9.40;99.90;;;;;;4882362;29;20032;-91
2023/04/15 04:50:39;;;;;;;13.60;6.50;;;9.50;99.90;;;;;;4882565;29;20064;-90
2023/04/15 04:53:05;;;;;;;14.80;6.78;;;9.70;99.90;;;;;;4882278;29;20048;-89
2023/04/15 04:55:32;;;;;;;12.25;6.57;;;9.80;99.90;;;;;;4882244;29;20032;-90
2023/04/15 04:57:58;;;;;;;13.52;6.88;;;9.90;99.90;;;;;;4882235;29;20040;-90
2023/04/15 05:00:24;;;;;;;16.58;7.57;;;10.00;99.90;;;;;;4866696;29;20036;-92
2023/04/15 05:02:51;;;;;;;14.63;7.32;;;10.20;99.90;;;;;;4873446;29;20033;-91
2023/04/15 05:05:17;;;;;;;18.38;9.25;;;10.60;99.90;;;;;;4880223;29;20111;-90
2023/04/15 05:07:43;;;;;;;16.48;9.52;;;11.20;99.90;;;;;;4883766;29;20039;-90
2023/04/15 05:10:10;;;;;;;16.00;10.73;;;11.90;99.90;;;;;;4901679;29;20598;-90
2023/04/15 05:12:37;;;;;;;17.52;12.70;;;12.40;99.90;;;;;;4922005;29;20035;-90
2023/04/15 05:15:05;;;;;;;16.27;13.73;;;12.70;99.90;;;;;;4907332;29;20024;-90
2023/04/15 05:17:34;;;;;;;19.02;14.45;;;12.90;99.90;;;;;;4907446;29;20142;-90
2023/04/15 05:20:01;;;;;;;17.00;15.50;;;13.10;99.90;;;;;;4923143;29;20051;-89
2023/04/15 05:22:28;;;;;;;18.25;15.65;;;13.30;99.90;;;;;;4923331;29;20035;-90
2023/04/15 05:24:54;;;;;;;17.75;15.82;;;13.30;99.90;;;;;;4907407;29;20027;-90
2023/04/15 05:27:22;;;;;;;18.08;16.15;;;13.30;99.90;;;;;;4908014;29;20548;-91
2023/04/15 05:29:49;;;;;;;17.25;15.57;;;13.40;99.90;;;;;;4907420;29;20111;-90
2023/04/15 05:32:16;;;;;;;16.00;14.52;;;13.80;99.90;;;;;;4926359;29;20032;-89
2023/04/15 05:34:42;;;;;;;17.63;14.95;;;14.50;99.90;;;;;;4912462;29;20024;-90
2023/04/15 05:37:09;;;;;;;15.77;14.20;;;15.50;99.90;;;;;;4916069;29;20055;-90
2023/04/15 05:39:35;;;;;;;16.65;15.00;;;16.10;99.90;;;;;;4907778;29;20093;-90
2023/04/15 05:42:02;;;;;;;16.17;14.95;;;16.20;99.90;;;;;;4907324;29;20047;-90
2023/04/15 05:44:28;;;;;;;16.13;14.50;;;15.80;99.90;;;;;;4907058;29;20030;-91
2023/04/15 05:46:55;;;;;;;17.08;15.10;;;15.40;99.90;;;;;;4922664;29;20040;-89
2023/04/15 05:49:22;;;;;;;17.38;15.77;;;15.40;99.90;;;;;;4907213;29;20050;-91
2023/04/15 05:51:48;;;;;;;17.58;15.90;;;15.60;99.90;;;;;;4907153;29;20043;-89
2023/04/15 05:54:16;;;;;;;17.92;16.38;;;15.80;99.90;;;;;;4922404;29;20031;-89
2023/04/15 05:56:42;;;;;;;24.50;16.55;;;16.10;99.90;;;;;;4906695;29;20035;-90
2023/04/15 05:59:10;;;;;;;19.42;16.15;;;16.30;99.90;;;;;;4906695;29;20115;-91
2023/04/15 06:01:37;;;;;;;17.48;16.10;;;16.40;99.90;;;;;;4922498;29;20043;-90
2023/04/15 06:04:03;;;;;;;18.52;16.60;;;16.30;99.90;;;;;;4906388;29;20058;-91
2023/04/15 06:06:31;;;;;;;17.35;15.85;;;16.40;99.90;;;;;;4922560;29;20119;-89
2023/04/15 06:08:58;;;;;;;18.88;16.65;;;16.60;99.90;;;;;;4904623;29;20098;-90
2023/04/15 06:11:25;;;;;;;18.10;16.67;;;16.70;99.90;;;;;;4900430;29;20028;-90
2023/04/15 06:13:52;;;;;;;19.13;17.52;;;17.30;99.90;;;;;;4900072;29;20093;-90
2023/04/15 06:16:18;;;;;;;18.63;17.23;;;17.70;99.90;;;;;;4900209;29;20505;-91
2023/04/15 06:18:45;;;;;;;19.40;17.50;;;18.20;99.90;;;;;;4884521;29;20141;-90
2023/04/15 06:21:11;;;;;;;19.90;18.10;;;19.00;99.90;;;;;;4900067;29;20120;-90
2023/04/15 06:23:40;;;;;;;19.33;17.55;;;19.50;99.90;;;;;;4900036;29;20390;-91
2023/04/15 06:26:07;;;;;;;20.35;18.45;;;19.90;99.90;;;;;;4900192;29;20032;-91
2023/04/15 08:52:46;;;;;;;22.25;20.20;;;21.60;99.90;;;;;;5006224;23;20058;-92
2023/04/15 08:55:14;;;;;;;21.50;19.83;;;21.40;99.90;;;;;;4942907;28;20044;-92
2023/04/15 08:57:40;;;;;;;21.20;19.70;;;21.80;99.90;;;;;;4942484;29;20475;-93
2023/04/15 09:00:09;;;;;;;21.75;20.02;;;22.00;99.90;;;;;;4927565;29;20084;-93
2023/04/15 09:02:35;;;;;;;21.85;20.25;;;22.00;99.90;;;;;;4925191;29;20392;-93
2023/04/15 09:05:05;;;;;;;21.90;20.30;;;22.00;99.90;;;;;;4907778;29;20024;-91
2023/04/15 09:07:35;;;;;;;34.30;23.85;;;22.00;99.90;;;;;;4908367;29;20031;-91
2023/04/15 09:10:04;;;;;;;33.47;23.25;;;21.60;99.90;;;;;;4907821;29;20031;-92
2023/04/15 09:12:35;;;;;;;22.52;20.35;;;21.60;99.90;;;;;;4907515;29;20086;-92
2023/04/15 09:15:02;;;;;;;31.10;22.73;;;21.60;99.90;;;;;;4922762;29;20421;-92
2023/04/15 09:17:31;;;;;;;46.78;23.95;;;21.20;99.90;;;;;;4926288;29;20035;-91
2023/04/15 09:20:12;;;;;;;22.15;20.15;;;21.20;99.90;;;;;;4942148;29;20027;-90
2023/04/15 09:22:40;;;;;;;22.42;20.52;;;21.40;99.90;;;;;;4942652;29;20392;-91
2023/04/15 09:25:22;;;;;;;23.25;20.80;;;21.40;99.90;;;;;;4926453;29;20031;-91
2023/04/15 09:27:50;;;;;;;24.65;22.15;;;21.00;99.90;;;;;;4926645;29;20086;-93
2023/04/15 09:30:17;;;;;;;21.90;20.38;;;21.30;99.90;;;;;;4926272;29;20027;-93
2023/04/15 09:32:55;;;;;;;21.35;19.73;;;21.50;99.90;;;;;;4942240;29;20035;-93
2023/04/15 09:35:23;;;;;;;37.00;22.17;;;21.40;99.90;;;;;;4942164;29;20075;-94
2023/04/15 09:37:51;;;;;;;39.22;23.13;;;21.00;99.90;;;;;;4926041;29;20392;-92
2023/04/15 09:40:37;;;;;;;37.25;24.10;;;21.10;99.90;;;;;;4942020;29;20057;-93
2023/04/15 09:43:06;;;;;;;21.38;19.63;;;21.00;99.90;;;;;;4942173;29;20036;-90
2023/04/15 09:45:34;;;;;;;36.40;23.95;;;20.00;99.90;;;;;;4926093;29;20023;-91
2023/04/15 09:48:27;;;;;;;22.05;20.00;;;19.90;99.90;;;;;;4926097;29;20031;-90
2023/04/15 09:50:57;;;;;;;21.13;18.90;;;20.00;99.90;;;;;;4941587;28;20032;-91
2023/04/15 09:53:34;;;;;;;21.08;19.02;;;19.70;99.90;;;;;;4925833;29;20028;-92
2023/04/15 09:56:01;;;;;;;20.73;18.83;;;19.60;99.90;;;;;;4942008;29;20059;-90
2023/04/15 09:58:34;;;;;;;23.55;18.73;;;18.90;99.90;;;;;;4926090;29;20043;-92
2023/04/15 10:01:07;;;;;;;21.65;19.13;;;18.90;99.90;;;;;;4925738;28;20023;-91
2023/04/15 10:03:38;;;;;;;20.20;18.58;;;19.20;99.90;;;;;;4941700;29;20027;-91
2023/04/15 10:06:07;;;;;;;21.25;19.45;;;19.40;99.90;;;;;;4927321;29;20497;-92
2023/04/15 10:08:34;;;;;;;20.38;18.63;;;19.80;99.90;;;;;;4942265;29;20031;-91
2023/04/15 10:11:03;;;;;;;20.85;18.67;;;20.20;99.90;;;;;;4925409;29;20504;-92
2023/04/15 10:13:36;;;;;;;20.70;18.70;;;19.80;99.90;;;;;;4941039;29;20035;-92
2023/04/15 10:16:19;;;;;;;24.13;19.38;;;19.30;99.90;;;;;;4941362;29;20489;-91
2023/04/15 10:18:49;;;;;;;25.08;19.38;;;18.90;99.90;;;;;;4925075;29;20078;-92
2023/04/15 10:21:21;;;;;;;42.05;21.25;;;19.10;99.90;;;;;;4930637;28;20074;-94
2023/04/15 10:23:51;;;;;;;29.90;20.60;;;18.70;99.90;;;;;;4941587;29;20063;-92
2023/04/15 10:26:17;;;;;;;31.33;21.15;;;18.30;99.90;;;;;;4925576;29;20035;-93
2023/04/15 10:28:46;;;;;;;28.15;20.67;;;18.50;99.90;;;;;;4941859;29;20086;-91
2023/04/15 10:31:17;;;;;;;24.50;20.30;;;18.30;99.90;;;;;;4930235;29;20023;-92
2023/04/15 10:33:45;;;;;;;30.77;19.90;;;18.10;99.90;;;;;;4942610;29;20058;-93
2023/04/15 10:36:12;;;;;;;29.42;19.25;;;17.60;99.90;;;;;;4926635;29;20042;-91
2023/04/15 10:38:45;;;;;;;30.13;20.05;;;17.60;99.90;;;;;;4928022;29;20047;-93
2023/04/15 10:41:16;;;;;;;19.73;18.30;;;18.00;99.90;;;;;;4932928;28;20012;-90
2023/04/15 10:43:52;;;;;;;19.70;18.10;;;18.30;99.90;;;;;;4951291;29;20066;-92
2023/04/15 10:46:22;;;;;;;19.50;17.92;;;18.60;99.90;;;;;;4963350;28;20023;-92
2023/04/15 10:48:51;;;;;;;21.88;19.75;;;18.50;99.90;;;;;;4948913;29;20038;-93
2023/04/15 10:51:30;;;;;;;24.52;20.70;;;18.40;99.90;;;;;;4927999;28;20039;-92
2023/04/15 10:54:00;;;;;;;35.17;22.63;;;18.50;99.90;;;;;;4941117;29;20042;-92
2023/04/15 10:56:30;;;;;;;37.22;23.30;;;19.00;99.90;;;;;;4940768;29;20070;-94
2023/04/15 10:59:00;;;;;;;44.65;22.70;;;19.50;99.90;;;;;;4940902;29;20134;-94
2023/04/15 11:01:53;;;;;;;21.65;19.35;;;19.70;99.90;;;;;;4940413;28;20059;-93
2023/04/15 11:04:53;;;;;;;34.20;22.33;;;20.00;99.90;;;;;;4940271;29;20456;-94
2023/04/15 11:07:47;;;;;;;45.47;23.33;;;20.30;99.90;;;;;;4940490;29;20027;-91
2023/04/15 11:10:20;;;;;;;45.20;24.98;;;20.20;99.90;;;;;;4937715;29;20031;-90
2023/04/15 11:12:50;;;;;;;42.00;23.60;;;20.40;99.90;;;;;;4939084;29;20028;-91
2023/04/15 11:15:43;;;;;;;31.00;22.02;;;20.40;99.90;;;;;;4947430;29;20033;-91
2023/04/15 11:18:19;;;;;;;23.17;20.73;;;20.30;99.90;;;;;;4928553;29;20032;-91
2023/04/15 11:20:51;;;;;;;21.45;19.73;;;20.80;99.90;;;;;;4922015;29;20023;-91
2023/04/15 11:23:19;;;;;;;21.83;19.90;;;20.80;99.90;;;;;;4939849;29;20075;-91
2023/04/15 11:25:45;;;;;;;22.38;20.40;;;21.10;99.90;;;;;;4946387;28;20031;-91
2023/04/15 11:28:12;;;;;;;20.92;19.42;;;21.40;99.90;;;;;;4954044;29;20027;-92
2023/04/15 11:30:41;;;;;;;21.55;19.85;;;21.30;99.90;;;;;;4932450;28;20369;-92
2023/04/15 11:33:10;;;;;;;21.65;20.02;;;20.70;99.90;;;;;;4946808;28;20059;-93
2023/04/15 11:35:40;;;;;;;22.10;20.35;;;20.40;99.90;;;;;;4941538;28;20070;-93
2023/04/15 11:38:14;;;;;;;22.17;20.67;;;20.40;99.90;;;;;;4945236;29;20126;-91
2023/04/15 11:40:42;;;;;;;21.05;19.52;;;20.50;99.90;;;;;;4942291;29;20035;-92
2023/04/15 11:43:19;;;;;;;25.75;21.33;;;20.30;99.90;;;;;;4924101;29;20114;-93
2023/04/15 11:45:55;;;;;;;43.50;23.23;;;20.10;99.90;;;;;;4924321;29;20555;-93
2023/04/15 11:48:23;;;;;;;28.45;21.13;;;19.30;99.90;;;;;;4924052;29;20027;-92
2023/04/15 11:51:04;;;;;;;21.98;19.95;;;19.10;99.90;;;;;;4923807;28;20082;-92
2023/04/15 11:53:42;;;;;;;30.63;21.50;;;18.50;99.90;;;;;;4939777;29;20544;-91
2023/04/15 11:56:11;;;;;;;22.48;20.70;;;17.90;99.90;;;;;;4924042;29;20055;-91
2023/04/15 11:58:38;;;;;;;23.80;21.00;;;18.20;99.90;;;;;;4924227;29;20028;-93
2023/04/15 12:01:06;;;;;;;55.00;26.98;;;18.70;99.90;;;;;;4940661;29;20027;-91
2023/04/15 12:03:43;;;;;;;38.35;23.05;;;19.00;99.90;;;;;;4902016;29;20044;-91
2023/04/15 12:06:18;;;;;;;21.95;20.15;;;19.40;99.90;;;;;;4901016;29;20044;-92
2023/04/15 12:09:06;;;;;;;30.13;22.52;;;19.50;99.90;;;;;;4901313;29;20040;-92
2023/04/15 12:11:46;;;;;;;20.65;19.05;;;19.10;99.90;;;;;;4901601;29;20101;-95
2023/04/15 12:14:21;;;;;;;39.13;23.35;;;19.10;99.90;;;;;;4885635;29;20044;-91
2023/04/15 12:16:52;;;;;;;50.63;26.92;;;19.20;99.90;;;;;;4900795;29;20462;-92
2023/04/15 12:19:33;;;;;;;35.40;22.27;;;19.50;99.90;;;;;;4900963;29;20115;-92
2023/04/15 12:22:05;;;;;;;57.00;25.83;;;19.80;99.90;;;;;;4902901;29;20032;-92
2023/04/15 12:24:34;;;;;;;40.90;24.73;;;19.90;99.90;;;;;;4905455;29;20036;-90
2023/04/15 12:27:06;;;;;;;27.73;21.63;;;19.70;99.90;;;;;;4904903;29;20025;-93
2023/04/15 12:29:35;;;;;;;22.48;20.17;;;19.60;99.90;;;;;;4905067;29;20044;-93
2023/04/15 12:32:18;;;;;;;48.72;22.75;;;19.80;99.90;;;;;;4904450;29;20052;-91
2023/04/15 12:34:51;;;;;;;22.65;20.30;;;19.70;99.90;;;;;;4919641;29;20073;-93
2023/04/15 12:37:18;;;;;;;24.35;21.33;;;19.60;99.90;;;;;;4943539;29;20043;-90
2023/04/15 12:39:47;;;;;;;33.97;23.10;;;19.80;99.90;;;;;;4927642;29;20027;-93
2023/04/15 12:42:15;;;;;;;22.23;20.33;;;19.90;99.90;;;;;;4943856;28;20571;-91
2023/04/15 12:44:42;;;;;;;22.88;20.48;;;20.10;99.90;;;;;;4928279;29;20098;-92
2023/04/15 12:47:10;;;;;;;35.92;24.45;;;20.00;99.90;;;;;;4942896;29;20031;-92
2023/04/15 12:49:38;;;;;;;32.03;23.30;;;20.10;99.90;;;;;;4943808;29;20236;-93
2023/04/15 12:52:05;;;;;;;24.20;21.92;;;20.00;99.90;;;;;;4927701;29;20082;-93
2023/04/15 12:54:32;;;;;;;30.02;22.27;;;20.10;99.90;;;;;;4944363;29;20031;-94
2023/04/15 12:56:59;;;;;;;25.20;22.25;;;20.10;99.90;;;;;;4930343;29;20039;-93
2023/04/15 12:59:28;;;;;;;31.92;25.13;;;19.90;99.90;;;;;;4945925;29;20027;-92
2023/04/15 13:01:55;;;;;;;57.28;25.70;;;19.50;99.90;;;;;;4945677;29;20084;-90
2023/04/15 13:04:21;;;;;;;29.50;22.52;;;19.50;99.90;;;;;;4946296;29;20031;-91
2023/04/15 13:06:48;;;;;;;36.08;24.15;;;19.40;99.90;;;;;;4933131;29;20035;-91
2023/04/15 13:09:15;;;;;;;38.22;23.50;;;19.30;99.90;;;;;;4931121;29;20027;-92
2023/04/15 13:11:42;;;;;;;21.05;19.50;;;18.90;99.90;;;;;;4943696;29;20035;-90
2023/04/15 13:14:12;;;;;;;21.63;19.80;;;18.60;99.90;;;;;;4927347;29;20019;-91
2023/04/15 13:16:39;;;;;;;21.40;19.20;;;18.50;99.90;;;;;;4942313;29;20070;-91
2023/04/15 13:19:06;;;;;;;21.73;19.45;;;18.30;99.90;;;;;;4927239;29;20114;-90
2023/04/15 13:21:34;;;;;;;21.67;19.52;;;18.50;99.90;;;;;;4926519;29;20034;-90
2023/04/15 13:24:01;;;;;;;21.00;19.15;;;18.60;99.90;;;;;;4927623;29;20497;-92
2023/04/15 13:26:28;;;;;;;21.58;19.73;;;19.00;99.90;;;;;;4942504;29;20046;-91
2023/04/15 13:28:55;;;;;;;22.40;20.20;;;19.00;99.90;;;;;;4926328;29;20544;-93
2023/04/15 13:31:21;;;;;;;22.88;20.80;;;19.40;99.90;;;;;;4938826;29;20046;-93
2023/04/15 13:33:48;;;;;;;21.83;19.77;;;19.20;99.90;;;;;;4907433;29;20560;-93
2023/04/15 13:36:14;;;;;;;21.38;19.42;;;19.00;99.90;;;;;;4907042;29;20051;-92
2023/04/15 13:38:43;;;;;;;21.80;19.55;;;19.40;99.90;;;;;;4908501;29;20027;-93
2023/04/15 13:41:12;;;;;;;20.75;19.10;;;19.70;99.90;;;;;;4907817;29;20031;-93
2023/04/15 13:43:39;;;;;;;21.50;19.80;;;20.00;99.90;;;;;;4906914;29;20044;-91
2023/04/15 13:46:11;;;;;;;21.33;19.63;;;19.90;99.90;;;;;;4907449;29;20061;-93
2023/04/15 13:48:41;;;;;;;21.95;20.02;;;19.70;99.90;;;;;;4910469;29;20567;-92
2023/04/15 13:51:07;;;;;;;22.05;20.05;;;19.70;99.90;;;;;;4904811;29;20457;-93
2023/04/15 13:53:35;;;;;;;22.17;19.90;;;19.80;99.90;;;;;;4906772;29;20505;-93
2023/04/15 13:56:02;;;;;;;22.42;20.17;;;19.90;99.90;;;;;;4943874;29;20055;-93
2023/04/15 13:58:31;;;;;;;21.70;19.70;;;20.00;99.90;;;;;;4941665;29;20507;-92
2023/04/15 14:00:57;;;;;;;22.08;20.25;;;20.10;99.90;;;;;;4940992;29;20039;-93
2023/04/15 14:03:24;;;;;;;22.45;20.38;;;19.90;99.90;;;;;;4941284;29;20035;-92
2023/04/15 14:05:54;;;;;;;22.00;19.85;;;19.80;99.90;;;;;;4941130;29;20027;-92
2023/04/15 14:08:22;;;;;;;22.25;20.25;;;19.60;99.90;;;;;;4944312;29;20118;-92
2023/04/15 14:10:49;;;;;;;22.00;19.83;;;19.80;99.90;;;;;;4957278;29;20039;-91
2023/04/15 14:13:18;;;;;;;21.90;19.98;;;19.90;99.90;;;;;;4957670;29;20031;-92
2023/04/15 14:15:45;;;;;;;22.27;20.50;;;19.70;99.90;;;;;;4941207;29;20036;-92
2023/04/15 14:18:12;;;;;;;21.85;19.83;;;19.60;99.90;;;;;;4957402;29;20023;-94
2023/04/15 14:20:39;;;;;;;21.23;19.38;;;19.50;99.90;;;;;;4957186;29;20062;-92
2023/04/15 14:23:05;;;;;;;20.85;18.73;;;19.30;99.90;;;;;;4957452;29;20023;-92
2023/04/15 14:25:32;;;;;;;22.58;19.50;;;19.30;99.90;;;;;;4957295;29;20114;-93
2023/04/15 14:27:58;;;;;;;20.70;18.85;;;19.40;99.90;;;;;;4941648;29;20023;-91
2023/04/15 14:30:25;;;;;;;22.17;19.90;;;19.00;99.90;;;;;;4925237;29;20078;-92
2023/04/15 14:32:51;;;;;;;21.25;19.48;;;19.00;99.90;;;;;;4925547;29;20028;-91
2023/04/15 14:35:18;;;;;;;20.95;19.20;;;18.80;99.90;;;;;;4924989;28;20027;-94
2023/04/15 14:37:44;;;;;;;21.05;18.88;;;18.90;99.90;;;;;;4956769;29;20527;-94
2023/04/15 14:40:12;;;;;;;24.00;19.35;;;18.60;99.90;;;;;;4941479;29;20031;-92
2023/04/15 14:42:38;;;;;;;21.10;19.10;;;18.70;99.90;;;;;;4940742;29;20039;-93
2023/04/15 14:45:05;;;;;;;21.10;18.92;;;18.70;99.90;;;;;;4945422;29;20031;-93
2023/04/15 14:47:34;;;;;;;20.55;18.80;;;18.20;99.90;;;;;;4929470;29;20027;-92
2023/04/15 14:50:01;;;;;;;19.58;18.00;;;18.00;99.90;;;;;;4946243;29;20035;-92
2023/04/15 14:52:37;;;;;;;19.98;17.95;;;18.00;99.90;;;;;;4943948;29;20087;-92
2023/04/15 14:55:11;;;;;;;19.90;18.08;;;18.10;99.90;;;;;;4943543;29;20035;-92
2023/04/15 14:57:38;;;;;;;19.88;17.95;;;18.00;99.90;;;;;;4960363;29;20051;-92
2023/04/15 15:00:07;;;;;;;19.17;17.35;;;18.10;99.90;;;;;;4959289;29;20389;-91
2023/04/15 15:02:58;;;;;;;19.42;17.55;;;18.00;99.90;;;;;;4965203;29;20036;-94
2023/04/15 15:06:52;;;;;;;19.90;17.83;;;17.90;99.90;;;;;;5189981;22;20176;-90
2023/04/15 15:10:20;;;;;;;20.33;18.65;;;17.90;99.90;;;;;;5076839;28;20041;-94